Time;durP1;ratioP1;P1;durP2;ratioP2;P2;SDS_P1;SDS_P2;PMS_P1;PMS_P2;Temp;Humidity;BMP_temperature;BMP_pressure;BME280_temperature;BME280_humidity;BME280_pressure;Samples;Min_cycle;Max_cycle;Signal;HPM_P1;HPM_P2
2022/12/28 00:00:48;;;;;;;;;1.00;1.00;;;;;21.16;38.97;101692.66;5031770;28;45332;-68
2022/12/28 00:03:14;;;;;;;;;1.67;1.00;;;;;21.22;39.00;101688.56;5041687;27;45668;-68
2022/12/28 00:05:39;;;;;;;;;1.00;1.00;;;;;21.23;38.74;101687.59;5052018;28;45354;-68
2022/12/28 00:08:05;;;;;;;;;0.67;0.67;;;;;21.22;38.72;101677.16;5052056;28;45411;-69
2022/12/28 00:10:30;;;;;;;;;1.00;1.00;;;;;21.22;39.27;101679.78;5052102;28;45400;-69
2022/12/28 00:12:55;;;;;;;;;0.00;0.00;;;;;21.22;38.96;101674.50;5052038;28;46125;-69
2022/12/28 00:15:21;;;;;;;;;1.00;1.00;;;;;21.14;38.79;101648.81;5052441;27;45372;-69
2022/12/28 00:17:46;;;;;;;;;2.00;2.00;;;;;21.21;38.53;101665.72;5055245;28;45535;-69
2022/12/28 00:20:12;;;;;;;;;2.00;1.00;;;;;21.13;38.84;101649.81;5055031;28;45408;-68
2022/12/28 00:22:37;;;;;;;;;0.00;0.00;;;;;21.22;39.01;101656.81;5055107;28;45518;-69
2022/12/28 00:25:03;;;;;;;;;1.00;1.00;;;;;21.23;39.02;101657.66;5054935;28;45431;-68
2022/12/28 00:27:28;;;;;;;;;1.33;0.00;;;;;21.24;39.04;101654.00;5055112;28;45307;-69
2022/12/28 00:29:53;;;;;;;;;1.67;1.67;;;;;21.24;38.83;101654.84;5054685;28;45427;-68
2022/12/28 00:32:19;;;;;;;;;1.00;1.00;;;;;21.22;39.08;101654.16;5054963;28;45439;-69
2022/12/28 00:34:44;;;;;;;;;1.00;1.00;;;;;21.21;38.83;101641.91;5054939;28;45356;-68
2022/12/28 00:37:09;;;;;;;;;1.33;1.00;;;;;21.25;39.16;101653.88;5054951;28;45466;-68
2022/12/28 00:39:35;;;;;;;;;0.00;0.00;;;;;21.23;39.12;101645.25;5036876;28;45532;-69
2022/12/28 00:42:00;;;;;;;;;1.00;1.00;;;;;21.26;38.81;101655.50;5054722;28;45408;-69
2022/12/28 00:44:25;;;;;;;;;0.00;0.00;;;;;21.27;38.69;101646.59;5054497;28;45357;-69
2022/12/28 00:46:51;;;;;;;;;1.00;1.00;;;;;21.27;38.57;101651.88;5054973;28;45229;-69
2022/12/28 00:49:16;;;;;;;;;0.00;0.00;;;;;21.28;38.46;101642.13;5036773;28;45505;-68
2022/12/28 00:51:41;;;;;;;;;2.00;2.00;;;;;21.28;38.96;101642.13;5054655;28;46087;-68
2022/12/28 00:54:07;;;;;;;;;0.33;0.33;;;;;21.25;38.67;101637.16;5053584;28;45389;-69
2022/12/28 00:56:32;;;;;;;;;1.00;1.00;;;;;21.29;38.57;101635.84;5034682;28;45396;-68
2022/12/28 00:58:58;;;;;;;;;2.00;0.67;;;;;21.24;38.71;101628.38;5034199;28;45429;-68
2022/12/28 01:01:26;;;;;;;;;1.67;0.33;;;;;21.29;38.79;101627.91;5034281;28;45317;-68
2022/12/28 01:03:53;;;;;;;;;1.00;1.00;;;;;21.29;38.96;101633.19;5049421;28;45695;-69
2022/12/28 01:06:19;;;;;;;;;1.00;1.00;;;;;21.28;38.59;101629.75;5054481;28;45371;-69
2022/12/28 01:08:44;;;;;;;;;0.67;0.67;;;;;21.28;38.52;101629.75;5054444;28;45378;-68
2022/12/28 01:11:18;;;;;;;;;1.00;1.00;;;;;21.29;39.05;101623.44;5054467;28;45281;-69
2022/12/28 01:13:44;;;;;;;;;2.00;0.00;;;;;21.28;39.11;101611.22;5053569;28;45669;-69
2022/12/28 01:16:13;;;;;;;;;1.00;1.00;;;;;21.28;39.08;101600.63;5054559;28;45360;-68
2022/12/28 01:18:39;;;;;;;;;1.00;1.00;;;;;21.15;38.99;101579.88;5054389;28;45494;-69
2022/12/28 01:21:13;;;;;;;;;0.67;0.67;;;;;21.27;38.63;101588.38;5054095;28;46239;-69
2022/12/28 01:23:39;;;;;;;;;1.00;1.00;;;;;21.28;38.50;101595.34;5054129;28;45462;-69
2022/12/28 01:26:05;;;;;;;;;3.00;1.00;;;;;21.26;38.83;101591.97;5053826;28;45485;-68
2022/12/28 01:28:30;;;;;;;;;2.00;2.00;;;;;21.22;38.61;101589.81;5035713;28;45519;-68
2022/12/28 01:30:55;;;;;;;;;1.00;1.00;;;;;21.25;38.68;101595.63;5054214;28;45670;-69
2022/12/28 01:33:21;;;;;;;;;1.00;1.00;;;;;21.22;39.01;101584.53;5054241;28;45331;-69
2022/12/28 01:35:46;;;;;;;;;0.67;0.67;;;;;21.20;38.70;101582.03;5054287;28;45394;-69
2022/12/28 01:38:11;;;;;;;;;0.00;0.00;;;;;21.22;39.04;101589.81;5054227;28;45436;-69
2022/12/28 01:40:40;;;;;;;;;1.00;1.00;;;;;21.21;38.77;101588.16;5054174;28;45372;-69
2022/12/28 01:43:12;;;;;;;;;0.00;0.00;;;;;21.25;38.63;101594.81;5053730;28;45315;-68
2022/12/28 01:45:38;;;;;;;;;1.00;0.33;;;;;21.14;39.06;101583.50;5054035;28;45307;-69
2022/12/28 01:48:03;;;;;;;;;0.00;0.00;;;;;21.24;38.96;101599.25;5053910;28;45329;-69
2022/12/28 01:50:29;;;;;;;;;0.67;0.67;;;;;21.23;38.61;101597.63;5053931;28;46389;-68
2022/12/28 01:52:59;;;;;;;;;1.00;1.00;;;;;21.23;38.66;101591.47;5053889;28;45233;-68
2022/12/28 01:55:29;;;;;;;;;0.00;0.00;;;;;21.22;38.91;101582.72;5042199;28;45559;-68
2022/12/28 01:58:04;;;;;;;;;1.67;1.67;;;;;21.23;38.58;101594.13;5033380;28;45448;-69
2022/12/28 02:00:30;;;;;;;;;0.00;0.00;;;;;21.21;39.08;101586.34;5033603;28;46095;-68
2022/12/28 02:03:12;;;;;;;;;0.67;0.67;;;;;21.21;38.98;101581.03;5041064;28;45273;-68
2022/12/28 02:05:41;;;;;;;;;1.00;1.00;;;;;21.22;39.16;101581.88;5053972;28;45522;-69
2022/12/28 02:08:25;;;;;;;;;1.00;1.00;;;;;21.21;38.88;101573.09;5035671;28;45435;-69
2022/12/28 02:10:52;;;;;;;;;1.33;0.00;;;;;21.13;39.09;101557.19;5053241;28;46115;-68
2022/12/28 02:13:20;;;;;;;;;3.00;1.00;;;;;21.22;38.88;101569.47;5053641;28;45302;-69
2022/12/28 02:15:46;;;;;;;;;1.00;1.00;;;;;21.18;39.17;101565.50;5052843;28;45321;-68
2022/12/28 02:18:13;;;;;;;;;1.00;1.00;;;;;21.21;38.99;101569.66;5053556;28;45404;-69
2022/12/28 02:21:08;;;;;;;;;1.00;1.00;;;;;21.21;38.73;101559.88;5053468;28;45404;-69
2022/12/28 02:23:37;;;;;;;;;1.00;1.00;;;;;21.19;38.92;101559.19;4952259;28;45522;-69
2022/12/28 02:26:17;;;;;;;;;0.00;0.00;;;;;21.21;38.85;101561.72;4952205;28;45346;-69
2022/12/28 02:29:04;;;;;;;;;1.67;1.00;;;;;21.22;38.77;101558.06;4952336;28;45445;-69
2022/12/28 02:31:56;;;;;;;;;1.00;0.00;;;;;21.21;39.07;101554.56;4952332;28;45467;-69
2022/12/28 02:34:34;;;;;;;;;2.00;0.33;;;;;21.21;39.19;101548.47;4952133;28;45440;-68
2022/12/28 02:37:11;;;;;;;;;0.00;0.00;;;;;21.20;38.66;101546.81;4952376;28;45336;-68
2022/12/28 02:39:52;;;;;;;;;2.00;1.00;;;;;21.23;39.03;101549.97;4951535;28;45456;-69
2022/12/28 02:42:20;;;;;;;;;0.67;0.67;;;;;21.22;38.64;101542.19;4951993;28;46220;-69
2022/12/28 02:50:15;;;;;;;;;1.00;1.00;;;;;21.22;39.25;101524.50;4952181;28;45477;-68
2022/12/28 02:52:53;;;;;;;;;1.00;1.00;;;;;21.26;38.84;101535.59;4952009;28;45857;-69
2022/12/28 02:59:01;;;;;;;;;0.00;0.00;;;;;21.25;39.20;101526.81;4932906;28;45479;-69
2022/12/28 03:01:54;;;;;;;;;0.00;0.00;;;;;21.21;38.77;101504.28;5007933;27;45306;-69
2022/12/28 03:04:37;;;;;;;;;1.00;1.00;;;;;21.26;38.90;101509.94;5050982;28;45318;-69
2022/12/28 03:10:30;;;;;;;;;1.00;1.00;;;;;21.25;39.28;101505.66;5052689;28;45414;-69
2022/12/28 03:16:05;;;;;;;;;1.00;0.67;;;;;21.27;38.76;101506.31;5052779;28;45477;-68
2022/12/28 03:32:26;;;;;;;;;1.00;1.00;;;;;21.25;38.69;101475.69;5052691;28;45486;-69
2022/12/28 03:34:52;;;;;;;;;0.67;0.67;;;;;21.24;39.07;101466.09;5052588;28;45459;-68
2022/12/28 03:37:24;;;;;;;;;0.67;0.67;;;;;21.25;38.98;101465.94;5052648;28;46075;-69
2022/12/28 03:39:49;;;;;;;;;0.00;0.00;;;;;21.24;39.07;101466.94;5052096;28;45479;-68
2022/12/28 03:45:32;;;;;;;;;2.00;0.00;;;;;21.23;38.84;101473.22;5052653;28;45348;-69
2022/12/28 03:48:02;;;;;;;;;1.00;1.00;;;;;21.22;38.82;101474.19;5052241;28;46190;-69
2022/12/28 03:50:28;;;;;;;;;0.00;0.00;;;;;21.22;38.85;101463.63;5054589;28;45384;-68
2022/12/28 03:52:54;;;;;;;;;1.00;0.00;;;;;21.24;39.01;101464.28;5055177;28;45400;-69
2022/12/28 03:55:19;;;;;;;;;0.67;0.67;;;;;21.23;39.09;101461.81;5044502;28;45453;-68
2022/12/28 03:57:44;;;;;;;;;2.00;1.00;;;;;21.23;39.16;101453.88;5033737;28;47250;-69
2022/12/28 04:00:10;;;;;;;;;0.67;0.67;;;;;21.22;39.02;101447.75;5035256;28;45398;-69
2022/12/28 04:02:36;;;;;;;;;0.33;0.33;;;;;21.22;38.93;101445.09;5039781;27;45384;-69
2022/12/28 04:05:03;;;;;;;;;1.67;0.00;;;;;21.23;38.71;101443.28;5055415;28;45408;-68
2022/12/28 04:07:28;;;;;;;;;0.33;0.33;;;;;21.22;39.10;101442.44;5054735;28;47410;-68
2022/12/28 04:09:54;;;;;;;;;1.67;1.00;;;;;21.21;39.04;101440.78;5054916;28;45341;-68
2022/12/28 04:12:19;;;;;;;;;0.67;0.67;;;;;21.20;38.74;101435.66;5055353;28;45357;-68
2022/12/28 04:14:44;;;;;;;;;0.67;0.00;;;;;21.21;39.13;101430.19;5055326;28;45238;-69
2022/12/28 04:17:09;;;;;;;;;1.00;1.00;;;;;21.20;38.71;101435.66;5054478;28;45464;-69
2022/12/28 04:19:35;;;;;;;;;0.00;0.00;;;;;21.11;38.77;101416.25;5055158;28;45257;-69
2022/12/28 04:22:00;;;;;;;;;1.00;1.00;;;;;21.20;39.18;101425.91;5054889;28;45149;-68
2022/12/28 04:24:26;;;;;;;;;1.00;0.00;;;;;21.18;38.85;101433.19;5054461;28;45390;-69
2022/12/28 04:26:51;;;;;;;;;2.00;0.00;;;;;21.21;39.23;101429.38;5036846;28;48338;-69
2022/12/28 04:29:16;;;;;;;;;1.00;1.00;;;;;21.20;39.09;101420.63;5055036;28;45274;-69
2022/12/28 04:31:41;;;;;;;;;0.00;0.00;;;;;21.19;39.09;101421.59;5055099;28;45339;-69
2022/12/28 04:34:07;;;;;;;;;0.00;0.00;;;;;21.09;38.92;101400.56;5055382;28;45224;-68
2022/12/28 04:36:32;;;;;;;;;0.00;0.00;;;;;21.21;39.01;101410.88;5054470;28;45371;-68
2022/12/28 04:38:58;;;;;;;;;1.00;0.67;;;;;21.21;38.84;101413.50;5054776;28;45341;-68
2022/12/28 04:41:24;;;;;;;;;1.00;0.33;;;;;21.12;39.24;101397.59;5055285;28;45369;-69
2022/12/28 04:43:50;;;;;;;;;0.67;0.00;;;;;21.21;39.17;101408.22;5054749;28;45418;-69
2022/12/28 04:46:16;;;;;;;;;1.00;1.00;;;;;21.18;38.57;101409.38;5054738;28;45340;-68
2022/12/28 04:48:42;;;;;;;;;0.00;0.00;;;;;21.21;39.29;101409.03;5054566;28;45497;-68
2022/12/28 04:51:19;;;;;;;;;1.00;1.00;;;;;21.22;38.99;101412.50;5054439;28;45384;-69
2022/12/28 04:53:44;;;;;;;;;2.00;0.00;;;;;21.22;39.25;101409.84;5054725;28;45431;-68
2022/12/28 04:56:11;;;;;;;;;0.67;0.67;;;;;21.22;38.82;101410.69;5036468;28;45892;-69
2022/12/28 04:58:36;;;;;;;;;0.00;0.00;;;;;21.24;39.22;101408.72;5034574;28;45270;-69
2022/12/28 05:01:07;;;;;;;;;0.00;0.00;;;;;21.25;38.73;101404.25;5033627;28;45281;-69
2022/12/28 05:03:32;;;;;;;;;0.67;0.67;;;;;21.24;38.70;101406.06;5046863;28;45462;-69
2022/12/28 05:06:02;;;;;;;;;0.00;0.00;;;;;21.26;38.84;101403.28;5054075;28;46844;-69
2022/12/28 05:08:30;;;;;;;;;0.00;0.00;;;;;21.26;39.09;101398.78;5054476;28;45295;-68
2022/12/28 05:10:59;;;;;;;;;0.00;0.00;;;;;21.27;39.15;101397.81;5054552;28;45353;-69
2022/12/28 05:13:24;;;;;;;;;2.00;0.00;;;;;21.28;38.95;101396.00;5054514;28;45551;-69
2022/12/28 05:15:50;;;;;;;;;0.00;0.00;;;;;21.28;39.08;101396.81;5036275;28;47114;-68
2022/12/28 05:18:15;;;;;;;;;0.00;0.00;;;;;21.27;38.79;101395.16;5054359;28;45276;-69
2022/12/28 05:20:40;;;;;;;;;1.33;0.00;;;;;21.27;38.80;101396.97;5054155;28;45204;-69
2022/12/28 05:23:06;;;;;;;;;0.33;0.33;;;;;21.29;39.28;101405.56;5054517;28;45244;-68
2022/12/28 05:25:31;;;;;;;;;0.67;0.67;;;;;21.29;39.07;101398.47;5054210;28;45257;-69
2022/12/28 05:27:56;;;;;;;;;0.00;0.00;;;;;21.30;39.14;101399.31;5054413;28;45312;-68
2022/12/28 05:30:22;;;;;;;;;0.00;0.00;;;;;21.29;38.87;101389.69;5054362;28;45247;-69
2022/12/28 05:32:47;;;;;;;;;1.00;1.00;;;;;21.29;38.60;101379.09;5054378;28;45265;-69
2022/12/28 05:35:12;;;;;;;;;1.00;1.00;;;;;21.28;39.15;101383.59;5053844;28;45266;-69
2022/12/28 05:37:37;;;;;;;;;0.00;0.00;;;;;21.28;38.80;101372.16;5054045;28;45324;-69
2022/12/28 05:40:03;;;;;;;;;0.00;0.00;;;;;21.29;38.80;101376.47;5054250;28;45306;-69
2022/12/28 05:42:29;;;;;;;;;1.00;1.00;;;;;21.28;38.77;101364.22;5036269;28;45392;-69
2022/12/28 05:44:54;;;;;;;;;0.00;0.00;;;;;21.28;38.88;101367.72;5053869;28;46937;-69
2022/12/28 05:47:19;;;;;;;;;0.00;0.00;;;;;21.28;38.68;101365.06;5054045;28;45419;-68
2022/12/28 05:49:46;;;;;;;;;0.00;0.00;;;;;21.27;39.09;101357.28;5053852;28;45411;-69
2022/12/28 05:52:11;;;;;;;;;0.00;0.00;;;;;21.26;38.81;101353.78;5054056;28;45462;-69
2022/12/28 05:54:36;;;;;;;;;1.00;1.00;;;;;21.27;39.18;101349.34;5048533;28;47060;-68
2022/12/28 05:57:02;;;;;;;;;0.67;0.67;;;;;21.26;38.66;101353.00;5033792;28;45329;-68
2022/12/28 05:59:27;;;;;;;;;0.00;0.00;;;;;21.26;38.74;101351.16;5033928;28;45416;-69
2022/12/28 06:01:52;;;;;;;;;0.00;0.00;;;;;21.26;38.75;101353.00;5033646;28;45418;-69
2022/12/28 06:04:20;;;;;;;;;0.00;0.00;;;;;21.25;38.73;101346.88;5052227;28;45386;-69
2022/12/28 06:06:46;;;;;;;;;0.00;0.00;;;;;21.26;38.89;101347.69;5053737;28;45371;-69
2022/12/28 06:09:12;;;;;;;;;2.00;1.00;;;;;21.24;38.98;101337.25;5052372;28;45352;-68
2022/12/28 06:11:38;;;;;;;;;3.00;2.00;;;;;21.23;39.06;101338.25;5053807;28;45430;-68
2022/12/28 06:14:04;;;;;;;;;1.00;0.00;;;;;21.24;38.82;101336.41;5053678;28;45414;-68
2022/12/28 06:16:33;;;;;;;;;0.00;0.00;;;;;21.24;39.20;101331.13;5053538;28;45419;-69
2022/12/28 06:19:03;;;;;;;;;0.00;0.00;;;;;21.24;38.91;101328.47;5053393;28;45311;-68
2022/12/28 06:21:32;;;;;;;;;0.50;0.50;;;;;21.23;39.45;101329.50;5053607;28;45511;-68
2022/12/28 06:23:58;;;;;;;;;0.00;0.00;;;;;21.23;38.82;101318.91;5053453;28;47314;-68
2022/12/28 06:26:26;;;;;;;;;1.33;0.00;;;;;21.24;39.31;101324.03;5053529;28;45427;-69
2022/12/28 06:28:51;;;;;;;;;0.00;0.00;;;;;21.21;38.80;101313.75;5053435;28;45280;-68
2022/12/28 06:31:22;;;;;;;;;2.00;0.00;;;;;21.22;38.76;101311.94;5053649;28;45475;-69
2022/12/28 06:33:49;;;;;;;;;0.00;0.00;;;;;21.22;39.26;101310.13;5053082;28;46158;-69
2022/12/28 06:36:19;;;;;;;;;0.33;0.33;;;;;21.22;38.80;101311.94;5053403;28;45377;-69
2022/12/28 06:38:45;;;;;;;;;0.00;0.00;;;;;21.22;39.17;101304.84;5053434;28;45266;-68
2022/12/28 06:41:12;;;;;;;;;0.00;0.00;;;;;21.22;38.79;101298.72;5053259;28;45356;-68
2022/12/28 06:43:38;;;;;;;;;1.00;1.00;;;;;21.22;38.96;101302.19;5053281;28;45435;-69
2022/12/28 06:46:04;;;;;;;;;0.00;0.00;;;;;21.22;39.04;101296.06;5053217;28;45384;-68
2022/12/28 06:48:31;;;;;;;;;0.67;0.00;;;;;21.22;39.23;101286.31;5052795;28;45259;-69
2022/12/28 06:51:05;;;;;;;;;0.00;0.00;;;;;21.16;39.04;101274.56;5053315;28;45293;-69
2022/12/28 06:53:33;;;;;;;;;1.00;1.00;;;;;21.21;39.02;101284.66;5052928;28;47253;-69
2022/12/28 06:56:21;;;;;;;;;0.00;0.00;;;;;21.21;38.90;101282.00;5036632;28;45512;-69
2022/12/28 06:58:48;;;;;;;;;0.67;0.67;;;;;21.21;39.30;101267.97;5033057;28;45443;-69
2022/12/28 07:01:14;;;;;;;;;0.00;0.00;;;;;21.22;39.26;101259.00;5032593;27;45392;-68
2022/12/28 07:03:41;;;;;;;;;0.00;0.00;;;;;21.20;39.41;101250.41;5046204;28;46177;-69
2022/12/28 07:06:07;;;;;;;;;0.00;0.00;;;;;21.15;38.99;101259.69;5053161;28;45388;-68
2022/12/28 07:08:33;;;;;;;;;0.67;0.67;;;;;21.14;38.92;101252.72;5052925;28;45408;-69
2022/12/28 07:11:04;;;;;;;;;0.00;0.00;;;;;21.21;39.43;101257.38;5053027;28;45576;-69
2022/12/28 07:13:29;;;;;;;;;0.00;0.00;;;;;21.22;38.92;101251.91;5052828;28;45311;-69
2022/12/28 07:15:55;;;;;;;;;1.00;1.00;;;;;21.19;39.17;101244.28;5052446;28;45281;-69
2022/12/28 07:18:20;;;;;;;;;0.33;0.33;;;;;21.18;38.94;101245.31;5052905;28;45268;-69
2022/12/28 07:20:45;;;;;;;;;2.00;0.00;;;;;21.23;38.76;101243.00;5053116;28;45356;-69
2022/12/28 07:23:11;;;;;;;;;2.00;0.00;;;;;21.25;38.96;101243.66;5052682;28;46944;-69
2022/12/28 07:25:36;;;;;;;;;0.00;0.00;;;;;21.23;39.31;101243.00;5058544;28;45252;-69
2022/12/28 07:28:01;;;;;;;;;1.00;0.00;;;;;21.27;39.07;101248.75;5059506;28;45270;-69
2022/12/28 07:30:27;;;;;;;;;0.00;0.00;;;;;21.27;39.21;101244.31;5059250;28;45258;-69
2022/12/28 07:32:52;;;;;;;;;0.00;0.00;;;;;21.28;39.25;101245.97;5059238;28;47018;-69
2022/12/28 07:35:17;;;;;;;;;1.00;0.00;;;;;21.28;39.15;101247.78;5059388;28;45360;-69
2022/12/28 07:37:43;;;;;;;;;1.00;0.00;;;;;21.28;39.12;101245.13;5059334;28;45320;-68
2022/12/28 07:40:09;;;;;;;;;0.00;0.00;;;;;21.28;39.30;101238.03;5059482;28;45296;-69
2022/12/28 07:42:34;;;;;;;;;1.00;1.00;;;;;21.29;39.29;101230.91;5059030;28;46380;-68
2022/12/28 07:44:59;;;;;;;;;1.67;0.00;;;;;21.29;38.82;101220.31;5040728;28;46169;-69
2022/12/28 07:47:25;;;;;;;;;0.00;0.00;;;;;21.29;39.37;101220.31;5058738;28;45464;-68
2022/12/28 07:49:50;;;;;;;;;1.00;1.00;;;;;21.28;38.99;101214.22;5059253;28;45372;-68
2022/12/28 07:52:15;;;;;;;;;0.67;0.67;;;;;21.28;38.83;101200.16;5058956;28;46263;-69
2022/12/28 07:54:40;;;;;;;;;0.00;0.00;;;;;21.28;39.10;101208.91;5053387;28;45521;-69
2022/12/28 07:57:06;;;;;;;;;0.00;0.00;;;;;21.28;38.76;101208.09;5038962;28;45757;-69
2022/12/28 07:59:31;;;;;;;;;1.00;1.00;;;;;21.24;39.16;101198.81;5038532;28;45613;-69
2022/12/28 08:01:56;;;;;;;;;2.00;1.00;;;;;21.28;38.83;101202.78;5038455;27;49204;-69
2022/12/28 08:04:22;;;;;;;;;0.67;0.67;;;;;21.26;38.92;101200.28;5057982;28;45406;-69
2022/12/28 08:06:47;;;;;;;;;0.00;0.00;;;;;21.22;38.85;101193.69;5058995;28;45506;-68
2022/12/28 08:09:13;;;;;;;;;0.00;0.00;;;;;21.22;38.95;101191.03;5058720;28;45487;-68
2022/12/28 08:11:41;;;;;;;;;0.00;0.00;;;;;21.26;39.14;101199.50;5058807;28;46413;-69
2022/12/28 08:14:09;;;;;;;;;0.00;0.00;;;;;21.24;38.94;101194.34;5058334;28;45399;-69
2022/12/28 08:16:40;;;;;;;;;0.00;0.00;;;;;21.25;39.06;101185.44;5058815;28;45376;-68
2022/12/28 08:19:07;;;;;;;;;1.00;1.00;;;;;21.25;38.86;101182.78;5058593;28;45373;-68
2022/12/28 08:21:40;;;;;;;;;1.00;1.00;;;;;21.16;38.91;101174.00;5058334;28;47365;-69
2022/12/28 08:24:07;;;;;;;;;1.00;1.00;;;;;21.23;39.32;101179.47;5058583;28;45320;-69
2022/12/28 08:26:38;;;;;;;;;0.00;0.00;;;;;21.14;39.04;101161.94;5058642;28;45282;-69
2022/12/28 08:29:10;;;;;;;;;0.00;0.00;;;;;21.23;39.06;101168.91;5058174;28;45383;-68
2022/12/28 08:31:38;;;;;;;;;0.33;0.33;;;;;21.25;39.29;101168.72;5058313;28;46083;-69
2022/12/28 08:34:06;;;;;;;;;2.00;0.00;;;;;21.24;38.85;101170.53;5058278;28;45386;-69
2022/12/28 08:36:31;;;;;;;;;0.00;0.00;;;;;21.15;38.90;101158.31;5054897;28;45354;-69
2022/12/28 08:38:57;;;;;;;;;0.00;0.00;;;;;21.22;38.99;101172.53;5054936;28;45455;-69
2022/12/28 08:41:25;;;;;;;;;2.00;1.00;;;;;21.22;39.06;101171.69;5054831;28;46807;-69
2022/12/28 08:43:51;;;;;;;;;0.00;0.00;;;;;21.22;39.00;101169.88;5054391;27;45346;-68
2022/12/28 08:46:22;;;;;;;;;0.00;0.00;;;;;21.19;39.01;101162.25;5054900;28;45409;-69
2022/12/28 08:48:50;;;;;;;;;0.00;0.00;;;;;21.22;39.15;101164.59;5054781;28;45489;-69
2022/12/28 08:51:32;;;;;;;;;1.00;1.00;;;;;21.22;39.24;101156.66;5054627;28;46958;-68
2022/12/28 08:53:58;;;;;;;;;0.00;0.00;;;;;21.12;39.03;101146.25;5054697;28;45234;-69
2022/12/28 08:56:26;;;;;;;;;0.00;0.00;;;;;21.21;39.33;101146.25;5034830;28;45249;-69
2022/12/28 08:58:53;;;;;;;;;0.67;0.33;;;;;21.22;39.26;101158.47;5034138;28;45459;-69
2022/12/28 09:01:31;;;;;;;;;0.00;0.00;;;;;21.22;39.24;101161.94;5034298;28;46063;-68
2022/12/28 09:03:58;;;;;;;;;0.00;0.00;;;;;21.22;39.01;101155.81;5050292;28;45453;-69
2022/12/28 09:06:31;;;;;;;;;0.00;0.00;;;;;21.21;39.02;101151.53;5054683;28;45284;-69
2022/12/28 09:08:59;;;;;;;;;1.00;1.00;;;;;21.21;38.79;101151.53;5054512;28;45404;-69
2022/12/28 09:11:25;;;;;;;;;1.00;1.00;;;;;21.15;39.07;101135.34;5053966;28;46383;-69
2022/12/28 09:13:50;;;;;;;;;0.00;0.00;;;;;21.20;39.54;101134.00;5054408;28;45399;-69
2022/12/28 09:16:18;;;;;;;;;0.00;0.00;;;;;21.22;39.48;101129.34;5054387;28;45395;-69
2022/12/28 09:18:45;;;;;;;;;0.67;0.67;;;;;21.22;39.24;101129.34;5054482;28;45371;-69
2022/12/28 09:21:19;;;;;;;;;0.67;0.67;;;;;21.22;38.87;101142.59;5054335;28;46865;-68
2022/12/28 09:23:45;;;;;;;;;0.00;0.00;;;;;21.22;38.77;101124.88;5054229;28;45419;-69
2022/12/28 09:26:31;;;;;;;;;2.00;0.00;;;;;21.13;39.45;101124.06;5054156;28;45443;-68
2022/12/28 09:28:59;;;;;;;;;1.00;1.00;;;;;21.25;39.45;101129.03;5054220;28;45412;-69
2022/12/28 09:31:27;;;;;;;;;0.00;0.00;;;;;21.24;38.90;101122.91;5054112;28;46363;-69
2022/12/28 09:34:02;;;;;;;;;0.00;0.00;;;;;21.25;38.81;101119.28;5054202;28;45463;-69
2022/12/28 09:36:29;;;;;;;;;0.00;0.00;;;;;21.26;39.32;101115.59;5054378;28;45396;-69
2022/12/28 09:38:56;;;;;;;;;0.00;0.00;;;;;21.27;38.87;101114.63;5054017;28;45467;-69
2022/12/28 09:41:25;;;;;;;;;2.67;1.00;;;;;21.29;38.86;101114.44;5053700;28;45659;-69
2022/12/28 09:44:06;;;;;;;;;0.00;0.00;;;;;21.29;39.03;101117.09;5054033;28;45427;-69
2022/12/28 09:46:33;;;;;;;;;0.00;0.00;;;;;21.28;38.99;101116.28;5054103;28;45249;-69
2022/12/28 09:49:03;;;;;;;;;0.67;0.00;;;;;21.15;39.28;101095.63;5053880;28;45369;-69
2022/12/28 09:51:34;;;;;;;;;0.00;0.00;;;;;21.31;38.82;101114.28;5054139;28;46432;-69
2022/12/28 09:53:59;;;;;;;;;1.00;0.00;;;;;21.29;38.94;101112.63;5054015;28;45164;-69
2022/12/28 09:56:25;;;;;;;;;1.00;0.00;;;;;21.30;39.10;101113.47;5033611;28;45380;-68
2022/12/28 09:58:51;;;;;;;;;0.00;0.00;;;;;21.26;38.81;101106.88;5033948;28;45464;-69
2022/12/28 10:01:18;;;;;;;;;0.00;0.00;;;;;21.30;38.97;101116.09;5033597;28;46331;-69
2022/12/28 10:03:44;;;;;;;;;0.00;0.00;;;;;21.22;39.25;101101.06;5047689;27;45447;-69
2022/12/28 10:06:23;;;;;;;;;0.00;0.00;;;;;21.31;39.30;101116.94;5054167;28;45653;-69
2022/12/28 10:08:51;;;;;;;;;0.00;0.00;;;;;21.30;38.88;101110.81;5053932;28;45269;-69
2022/12/28 10:11:21;;;;;;;;;0.33;0.00;;;;;21.30;39.19;101113.47;5053304;28;46295;-69
2022/12/28 10:13:53;;;;;;;;;0.33;0.00;;;;;21.30;39.28;101100.22;5053754;28;45311;-69
2022/12/28 10:16:19;;;;;;;;;0.00;0.00;;;;;21.26;39.09;101105.03;5053887;28;45407;-68
2022/12/28 10:18:47;;;;;;;;;0.00;0.00;;;;;21.29;39.14;101101.22;5053858;28;45400;-69
2022/12/28 10:21:14;;;;;;;;;1.00;1.00;;;;;21.28;39.17;101100.41;5053618;28;46958;-69
2022/12/28 10:23:42;;;;;;;;;1.00;1.00;;;;;21.17;39.01;101084.88;5053560;28;45353;-68
2022/12/28 10:26:14;;;;;;;;;1.67;0.00;;;;;21.28;38.90;101094.28;5053398;28;45421;-69
2022/12/28 10:28:46;;;;;;;;;0.00;0.00;;;;;21.26;38.97;101086.50;5053645;28;45382;-69
2022/12/28 10:31:12;;;;;;;;;0.00;0.00;;;;;21.14;38.88;101064.03;5053436;28;45318;-69
2022/12/28 10:33:39;;;;;;;;;0.00;0.00;;;;;21.26;38.98;101083.84;5053585;28;45328;-69
2022/12/28 10:36:09;;;;;;;;;0.00;0.00;;;;;21.12;39.19;101063.38;5053727;28;45655;-69
2022/12/28 10:38:35;;;;;;;;;0.00;0.00;;;;;21.27;39.15;101080.22;5053213;28;45622;-69
2022/12/28 10:41:08;;;;;;;;;0.00;0.00;;;;;21.27;39.37;101080.22;5053272;28;46265;-68
2022/12/28 10:43:37;;;;;;;;;1.00;0.00;;;;;21.26;38.96;101065.31;5053495;28;45509;-69
2022/12/28 10:46:06;;;;;;;;;0.00;0.00;;;;;21.26;38.75;101059.25;5053497;28;45314;-69
2022/12/28 10:48:37;;;;;;;;;0.00;0.00;;;;;21.26;38.83;101054.75;5053311;28;45445;-68
2022/12/28 10:51:11;;;;;;;;;0.00;0.00;;;;;21.25;38.89;101042.53;5053149;28;47019;-69
2022/12/28 10:54:21;;;;;;;;;0.00;0.00;;;;;21.23;39.17;101028.66;5052839;28;45443;-69
2022/12/28 10:56:49;;;;;;;;;0.00;0.00;;;;;21.26;39.17;101030.13;5013542;28;45449;-68
2022/12/28 10:59:24;;;;;;;;;0.00;0.00;;;;;21.20;38.83;101010.47;5012172;28;45451;-69
2022/12/28 11:01:49;;;;;;;;;0.00;0.00;;;;;21.22;39.49;101018.22;5012945;28;46266;-69
2022/12/28 11:04:25;;;;;;;;;0.00;0.00;;;;;21.24;39.38;101017.03;5049314;28;45473;-69
2022/12/28 11:06:54;;;;;;;;;0.00;0.00;;;;;21.23;39.24;101009.28;5053312;28;45395;-69
2022/12/28 11:09:24;;;;;;;;;0.67;0.67;;;;;21.23;39.12;101002.19;5052590;28;45516;-69
2022/12/28 11:11:53;;;;;;;;;0.00;0.00;;;;;21.22;39.18;100997.88;5052829;28;46270;-69
2022/12/28 11:14:32;;;;;;;;;0.00;0.00;;;;;21.22;39.27;100989.94;5053043;28;45292;-69
2022/12/28 11:17:16;;;;;;;;;0.00;0.00;;;;;21.23;39.08;100993.41;5052841;27;45361;-69
2022/12/28 11:19:42;;;;;;;;;0.00;0.00;;;;;21.22;38.84;100982.00;5053009;28;45275;-68
2022/12/28 11:22:11;;;;;;;;;0.00;0.00;;;;;21.22;38.96;100982.00;5052475;28;46086;-69
2022/12/28 11:24:39;;;;;;;;;1.00;1.00;;;;;21.23;38.86;100972.25;5052878;28;45475;-69
2022/12/28 11:27:04;;;;;;;;;0.00;0.00;;;;;21.24;39.12;100973.88;5052721;28;45387;-68
2022/12/28 11:29:31;;;;;;;;;0.00;0.00;;;;;21.23;39.45;100961.66;5052806;28;45306;-69
2022/12/28 11:32:11;;;;;;;;;0.00;0.00;;;;;21.18;39.02;100960.34;5034920;27;47343;-68
2022/12/28 11:34:37;;;;;;;;;0.00;0.00;;;;;21.25;39.43;100957.00;5052706;28;45304;-69
2022/12/28 11:37:03;;;;;;;;;0.00;0.00;;;;;21.25;39.09;100954.38;5052448;28;45332;-69
2022/12/28 11:39:30;;;;;;;;;0.00;0.00;;;;;21.24;39.05;100942.94;5052753;28;45211;-68
2022/12/28 11:42:00;;;;;;;;;0.00;0.00;;;;;21.25;39.15;100931.38;5052035;28;46458;-69
2022/12/28 11:44:28;;;;;;;;;1.00;1.00;;;;;21.27;39.19;100925.91;5052607;28;45382;-69
2022/12/28 11:47:02;;;;;;;;;0.00;0.00;;;;;21.27;38.90;100917.97;5052590;28;45388;-69
2022/12/28 11:49:33;;;;;;;;;0.00;0.00;;;;;21.28;39.19;100906.41;5052571;28;45259;-69
2022/12/28 11:52:17;;;;;;;;;2.00;0.00;;;;;21.28;39.22;100891.34;5051953;28;46197;-69
2022/12/28 11:54:53;;;;;;;;;0.00;0.00;;;;;21.25;39.27;100896.16;5046348;27;45481;-69
2022/12/28 11:57:35;;;;;;;;;0.00;0.00;;;;;21.28;39.26;100888.69;5014495;28;45369;-69
2022/12/28 12:00:16;;;;;;;;;0.00;0.00;;;;;21.29;38.78;100882.41;5032329;28;45420;-69
2022/12/28 12:02:46;;;;;;;;;0.00;0.00;;;;;21.17;39.00;100858.16;5037316;27;45915;-68